Time;durP1;ratioP1;P1;durP2;ratioP2;P2;SDS_P1;SDS_P2;PMS_P1;PMS_P2;Temp;Humidity;BMP_temperature;BMP_pressure;BME280_temperature;BME280_humidity;BME280_pressure;Samples;Min_cycle;Max_cycle;Signal;HPM_P1;HPM_P2
2021/03/02 00:01:05;;;;;;;21.75;12.30;;;;;;;5.92;63.15;99428.81;5012787;28;20253;-75
2021/03/02 00:03:32;;;;;;;22.05;11.75;;;;;;;5.91;63.03;99427.91;5012930;28;20269;-75
2021/03/02 00:05:59;;;;;;;20.23;12.25;;;;;;;5.88;63.33;99430.53;5013990;28;20269;-76
2021/03/02 00:08:25;;;;;;;22.27;12.07;;;;;;;5.87;63.32;99431.38;5017963;28;20274;-74
2021/03/02 00:10:51;;;;;;;19.70;11.43;;;;;;;5.84;63.39;99431.38;5013081;28;20243;-75
2021/03/02 00:13:17;;;;;;;22.27;12.13;;;;;;;5.83;63.80;99428.81;5018902;28;20589;-74
2021/03/02 00:15:43;;;;;;;20.38;11.85;;;;;;;5.80;63.96;99430.50;5012369;28;20239;-75
2021/03/02 00:18:12;;;;;;;20.92;11.40;;;;;;;5.74;64.18;99433.09;5016508;28;20602;-76
2021/03/02 00:20:40;;;;;;;23.48;12.07;;;;;;;5.72;64.31;99433.97;5014134;28;20243;-73
2021/03/02 00:23:08;;;;;;;21.63;12.40;;;;;;;5.69;64.53;99441.72;5016416;28;20211;-75
2021/03/02 00:25:36;;;;;;;22.05;13.13;;;;;;;5.66;64.33;99442.59;5012198;28;20251;-75
2021/03/02 00:28:05;;;;;;;22.45;12.07;;;;;;;5.67;64.18;99444.28;5019829;28;20229;-74
2021/03/02 00:30:32;;;;;;;20.50;11.75;;;;;;;5.69;64.29;99441.72;5017628;28;20239;-74
2021/03/02 00:33:00;;;;;;;20.20;11.77;;;;;;;5.67;64.39;99440.84;5017360;28;20294;-73
2021/03/02 00:35:27;;;;;;;19.60;11.23;;;;;;;5.65;64.38;99445.16;5015753;28;20236;-74
2021/03/02 00:37:53;;;;;;;20.20;12.20;;;;;;;5.62;64.39;99439.97;5015733;28;20214;-75
2021/03/02 00:40:19;;;;;;;20.08;12.32;;;;;;;5.60;64.43;99447.72;5017766;28;20239;-76
2021/03/02 00:42:46;;;;;;;19.08;10.75;;;;;;;5.57;64.41;99448.59;5015329;28;20821;-75
2021/03/02 00:45:13;;;;;;;24.10;11.55;;;;;;;5.55;64.39;99444.25;5021604;28;21053;-75
2021/03/02 00:47:39;;;;;;;23.98;11.55;;;;;;;5.50;64.88;99449.44;5015628;28;20673;-74
2021/03/02 00:50:06;;;;;;;20.70;12.15;;;;;;;5.51;64.98;99448.56;5019086;28;20226;-75
2021/03/02 00:52:34;;;;;;;23.08;11.75;;;;;;;5.46;65.00;99447.72;5017383;28;20273;-75
2021/03/02 00:55:00;;;;;;;21.45;12.15;;;;;;;5.41;65.26;99446.81;5016325;28;20214;-74
2021/03/02 00:57:26;;;;;;;22.20;12.05;;;;;;;5.41;65.08;99446.81;5017381;28;20233;-74
2021/03/02 00:59:53;;;;;;;22.70;13.13;;;;;;;5.37;65.01;99435.59;5017909;28;20238;-74
2021/03/02 01:02:19;;;;;;;20.15;11.65;;;;;;;5.31;65.73;99434.69;5016589;28;20248;-75
2021/03/02 01:04:45;;;;;;;24.05;12.93;;;;;;;5.32;65.65;99439.03;5012094;28;20525;-77
2021/03/02 01:07:11;;;;;;;22.77;12.00;;;;;;;5.29;65.68;99436.41;5017255;28;20477;-75
2021/03/02 01:09:38;;;;;;;22.88;12.48;;;;;;;5.25;66.34;99434.69;5016565;28;20222;-74
2021/03/02 01:12:05;;;;;;;22.30;13.27;;;;;;;5.22;66.43;99441.59;5014296;28;20230;-75
2021/03/02 01:14:32;;;;;;;24.35;12.90;;;;;;;5.24;66.50;99432.94;5017354;28;20310;-74
2021/03/02 01:16:58;;;;;;;23.92;12.40;;;;;;;5.23;66.38;99426.91;5013815;28;20247;-74
2021/03/02 01:19:24;;;;;;;23.08;12.38;;;;;;;5.22;66.32;99420.03;5029344;28;20215;-75
2021/03/02 01:21:51;;;;;;;23.73;13.02;;;;;;;5.15;66.87;99424.31;5014308;28;20238;-75
2021/03/02 01:24:17;;;;;;;21.60;12.50;;;;;;;5.15;66.62;99420.88;5015328;28;20364;-76
2021/03/02 01:26:44;;;;;;;23.38;13.32;;;;;;;5.16;66.36;99420.00;5013275;28;20235;-74
2021/03/02 01:29:10;;;;;;;28.63;14.52;;;;;;;5.14;66.54;99417.41;5015702;28;20732;-75
2021/03/02 01:31:36;;;;;;;25.70;14.02;;;;;;;5.12;66.10;99411.34;5011891;28;20367;-75
2021/03/02 01:34:03;;;;;;;26.83;14.82;;;;;;;5.08;66.48;99412.22;5015891;28;20920;-74
2021/03/02 01:36:29;;;;;;;28.38;14.15;;;;;;;5.03;66.98;99413.91;5019253;28;20242;-74
2021/03/02 01:38:55;;;;;;;26.77;13.85;;;;;;;5.02;67.38;99414.78;5019185;28;20207;-76
2021/03/02 01:41:21;;;;;;;29.25;14.18;;;;;;;4.99;67.56;99417.34;5018003;28;20246;-75
2021/03/02 01:43:48;;;;;;;25.27;13.30;;;;;;;4.94;67.72;99419.03;5011200;28;20215;-76
2021/03/02 01:46:15;;;;;;;23.55;13.75;;;;;;;4.94;67.42;99419.03;5015041;28;20247;-75
2021/03/02 01:48:41;;;;;;;28.10;14.52;;;;;;;4.92;67.54;99416.44;5014108;28;20358;-76
2021/03/02 01:51:08;;;;;;;25.42;14.20;;;;;;;4.90;67.20;99415.59;5015898;28;20234;-76
2021/03/02 01:53:35;;;;;;;25.88;13.60;;;;;;;4.82;67.92;99415.53;5015891;28;20222;-75
2021/03/02 01:56:01;;;;;;;24.38;14.40;;;;;;;4.86;67.43;99416.44;5015195;28;20228;-76
2021/03/02 01:58:28;;;;;;;30.27;15.75;;;;;;;4.86;67.44;99415.56;5019480;28;20305;-75
2021/03/02 02:00:56;;;;;;;25.80;14.65;;;;;;;4.85;67.88;99416.41;5016342;28;20247;-75
2021/03/02 02:03:27;;;;;;;29.80;15.43;;;;;;;4.78;68.00;99413.81;5015719;28;20211;-75
2021/03/02 02:05:59;;;;;;;27.80;15.02;;;;;;;4.74;68.10;99413.78;5015706;28;20246;-76
2021/03/02 02:08:32;;;;;;;29.67;15.30;;;;;;;4.73;68.08;99415.50;5014726;28;20214;-75
2021/03/02 02:11:08;;;;;;;26.95;14.32;;;;;;;4.72;67.69;99416.34;5015612;28;20239;-75
2021/03/02 02:13:43;;;;;;;27.65;14.68;;;;;;;4.67;68.40;99414.59;5016867;28;20210;-76
2021/03/02 02:16:11;;;;;;;26.77;14.80;;;;;;;4.64;68.09;99415.47;5019121;28;20255;-77
2021/03/02 02:18:38;;;;;;;32.33;16.23;;;;;;;4.63;68.04;99419.78;5010757;28;20219;-74
2021/03/02 02:21:13;;;;;;;26.85;15.05;;;;;;;4.57;69.33;99416.28;5014932;28;20235;-74
2021/03/02 02:23:41;;;;;;;26.05;15.27;;;;;;;4.56;68.71;99411.97;5014688;28;20672;-74
2021/03/02 02:26:16;;;;;;;29.85;15.70;;;;;;;4.55;68.50;99408.50;5014898;28;20244;-75
2021/03/02 02:28:44;;;;;;;28.80;16.00;;;;;;;4.53;68.87;99412.81;5015188;28;20219;-74
2021/03/02 02:31:11;;;;;;;27.30;15.07;;;;;;;4.51;68.42;99411.06;5014147;28;20953;-74
2021/03/02 02:33:39;;;;;;;30.90;15.75;;;;;;;4.46;69.57;99405.00;5011770;28;20227;-74
2021/03/02 02:36:07;;;;;;;31.33;15.90;;;;;;;4.45;68.83;99406.75;5015178;28;20243;-75
2021/03/02 02:38:35;;;;;;;31.25;16.23;;;;;;;4.46;68.56;99408.44;5015956;28;20219;-74
2021/03/02 02:41:02;;;;;;;29.88;15.75;;;;;;;4.42;69.38;99410.16;5012317;28;20250;-76
2021/03/02 02:43:28;;;;;;;33.75;16.90;;;;;;;4.43;69.00;99406.72;5016370;28;20211;-74
2021/03/02 02:45:55;;;;;;;33.10;17.17;;;;;;;4.42;69.25;99409.28;5002289;28;20277;-74
2021/03/02 02:48:22;;;;;;;33.30;16.55;;;;;;;4.35;69.51;99408.38;5013759;28;20210;-75
2021/03/02 02:50:51;;;;;;;31.80;16.75;;;;;;;4.34;69.29;99401.50;5013581;28;20232;-74
2021/03/02 02:53:18;;;;;;;30.95;17.10;;;;;;;4.34;68.98;99410.97;5015368;28;20214;-74
2021/03/02 02:55:46;;;;;;;36.47;17.42;;;;;;;4.30;69.13;99407.50;5015166;28;20247;-75
2021/03/02 02:58:15;;;;;;;34.03;17.67;;;;;;;4.29;69.53;99399.75;5019822;28;20317;-77
2021/03/02 03:00:42;;;;;;;34.35;17.67;;;;;;;4.27;69.59;99398.88;5017020;28;20247;-76
2021/03/02 03:03:12;;;;;;;31.77;16.63;;;;;;;4.25;69.62;99398.84;5018277;28;20206;-76
2021/03/02 03:05:41;;;;;;;37.47;18.73;;;;;;;4.22;69.70;99399.69;5013782;28;20239;-75
2021/03/02 03:08:10;;;;;;;32.00;16.30;;;;;;;4.22;69.61;99401.41;5016451;28;20225;-74
2021/03/02 03:10:38;;;;;;;33.30;18.55;;;;;;;4.18;69.92;99392.78;5018104;28;20243;-75
2021/03/02 03:13:06;;;;;;;31.67;16.40;;;;;;;4.14;69.87;99392.75;5015926;28;20726;-75
2021/03/02 03:15:33;;;;;;;33.35;17.58;;;;;;;4.14;69.82;99401.34;5013319;28;20298;-74
2021/03/02 03:18:00;;;;;;;28.55;16.40;;;;;;;4.12;70.18;99403.06;5013832;28;20210;-75
2021/03/02 03:20:27;;;;;;;38.08;18.98;;;;;;;4.12;69.89;99394.44;5013647;28;20950;-75
2021/03/02 03:22:54;;;;;;;33.42;19.05;;;;;;;4.10;70.41;99396.16;5015589;28;20215;-74
2021/03/02 03:25:20;;;;;;;35.15;17.55;;;;;;;4.09;70.20;99399.59;5014055;28;20231;-74
2021/03/02 03:27:51;;;;;;;34.65;18.05;;;;;;;4.07;70.30;99391.84;5015770;28;20219;-75
2021/03/02 03:30:18;;;;;;;32.25;17.45;;;;;;;4.04;70.47;99391.81;5016426;28;20868;-75
2021/03/02 03:32:46;;;;;;;32.45;19.20;;;;;;;4.03;70.29;99393.53;5014042;28;20313;-74
2021/03/02 03:35:13;;;;;;;35.53;18.97;;;;;;;4.03;70.32;99401.28;5016104;28;20617;-78
2021/03/02 03:37:40;;;;;;;37.53;18.20;;;;;;;3.98;70.89;99405.53;5013217;28;20242;-75
2021/03/02 03:40:08;;;;;;;38.30;18.52;;;;;;;3.93;70.68;99409.78;5014170;28;20238;-75
2021/03/02 03:42:34;;;;;;;34.97;17.80;;;;;;;3.89;70.93;99407.19;5016571;28;20229;-76
2021/03/02 03:45:00;;;;;;;35.03;18.92;;;;;;;3.89;70.98;99402.00;5012776;28;20207;-75
2021/03/02 03:47:27;;;;;;;34.30;18.63;;;;;;;3.88;71.05;99406.31;5016024;28;20238;-75
2021/03/02 03:49:53;;;;;;;35.30;17.73;;;;;;;3.90;70.69;99408.88;5017345;28;20215;-76
2021/03/02 03:52:20;;;;;;;38.03;18.65;;;;;;;3.88;71.01;99411.47;5020423;28;20325;-76
2021/03/02 03:54:49;;;;;;;33.63;18.63;;;;;;;3.83;71.01;99411.44;5015782;28;20743;-75
2021/03/02 03:57:16;;;;;;;36.10;18.92;;;;;;;3.80;70.95;99408.81;5018609;28;20242;-76
2021/03/02 03:59:43;;;;;;;34.28;17.20;;;;;;;3.79;71.28;99408.81;5013821;28;20648;-75
2021/03/02 04:02:09;;;;;;;37.92;19.75;;;;;;;3.76;71.13;99411.38;5016980;28;20248;-76
2021/03/02 04:04:37;;;;;;;35.33;18.38;;;;;;;3.74;71.27;99413.06;5029167;28;20207;-74
2021/03/02 04:07:05;;;;;;;35.30;18.42;;;;;;;3.71;71.42;99413.03;5018230;28;20241;-75
2021/03/02 04:09:32;;;;;;;37.20;19.55;;;;;;;3.67;71.43;99418.16;5019029;28;20211;-76
2021/03/02 04:11:59;;;;;;;39.83;19.63;;;;;;;3.65;71.85;99413.84;5020089;28;21333;-75
2021/03/02 04:14:25;;;;;;;41.10;20.60;;;;;;;3.63;71.68;99416.41;5013838;28;20219;-75
2021/03/02 04:16:51;;;;;;;39.50;20.00;;;;;;;3.62;71.92;99412.13;5014804;28;20250;-75
2021/03/02 04:19:18;;;;;;;37.83;19.27;;;;;;;3.62;71.64;99419.84;5032258;28;20265;-74
2021/03/02 04:21:44;;;;;;;38.72;18.80;;;;;;;3.59;71.68;99422.41;5014702;28;20257;-75
2021/03/02 04:24:10;;;;;;;37.88;19.65;;;;;;;3.57;71.98;99421.53;5016613;28;20210;-75
2021/03/02 04:26:36;;;;;;;40.58;19.85;;;;;;;3.56;71.75;99422.34;5017123;28;20242;-75
2021/03/02 04:29:04;;;;;;;37.77;19.83;;;;;;;3.54;72.00;99421.47;5020156;28;20211;-75
2021/03/02 04:31:31;;;;;;;37.13;19.85;;;;;;;3.54;72.31;99423.19;5019402;28;20245;-75
2021/03/02 04:33:57;;;;;;;35.63;19.38;;;;;;;3.53;72.30;99421.44;5017421;28;20960;-76
2021/03/02 04:36:23;;;;;;;41.78;21.02;;;;;;;3.51;72.37;99421.47;5015975;28;20274;-75
2021/03/02 04:38:49;;;;;;;37.63;19.27;;;;;;;3.45;72.43;99417.09;5018684;28;20648;-77
2021/03/02 04:41:15;;;;;;;39.38;19.30;;;;;;;3.44;72.38;99420.53;5016203;28;20242;-75
2021/03/02 04:43:42;;;;;;;39.00;18.80;;;;;;;3.38;72.94;99422.16;5016636;28;20684;-75
2021/03/02 04:46:09;;;;;;;39.97;18.98;;;;;;;3.32;73.62;99422.97;5015219;28;20249;-75
2021/03/02 04:48:35;;;;;;;33.72;17.25;;;;;;;3.28;74.07;99418.63;5014791;28;20218;-75
2021/03/02 04:51:01;;;;;;;37.75;18.27;;;;;;;3.26;74.17;99421.19;5006445;28;20247;-73
2021/03/02 04:53:28;;;;;;;41.97;19.80;;;;;;;3.24;74.25;99417.72;5021425;28;20751;-74
2021/03/02 04:55:54;;;;;;;38.28;19.50;;;;;;;3.19;74.79;99419.38;5017767;28;20307;-74
2021/03/02 04:58:21;;;;;;;40.13;19.87;;;;;;;3.21;74.69;99421.97;5016028;28;20206;-74
2021/03/02 05:00:47;;;;;;;35.78;18.38;;;;;;;3.20;75.07;99421.13;5011626;28;20313;-76
2021/03/02 05:03:14;;;;;;;36.05;17.52;;;;;;;3.18;74.93;99427.97;5019261;28;20214;-75
2021/03/02 05:05:40;;;;;;;41.42;20.70;;;;;;;3.16;75.41;99419.38;5012408;28;20269;-75
2021/03/02 05:08:06;;;;;;;39.67;19.88;;;;;;;3.20;74.65;99423.72;5015629;28;20214;-73
2021/03/02 05:10:33;;;;;;;42.50;19.90;;;;;;;3.19;74.70;99424.53;5012950;28;20622;-75
2021/03/02 05:12:59;;;;;;;38.53;19.40;;;;;;;3.16;74.73;99424.53;5017368;28;20202;-74
2021/03/02 05:15:25;;;;;;;39.55;20.33;;;;;;;3.14;74.94;99421.03;5020096;28;20208;-76
2021/03/02 05:17:51;;;;;;;40.78;18.33;;;;;;;3.17;74.35;99426.25;5014802;28;20211;-75
2021/03/02 05:20:19;;;;;;;39.75;19.13;;;;;;;3.15;74.67;99435.66;5013265;28;20239;-74
2021/03/02 05:22:45;;;;;;;42.27;19.87;;;;;;;3.15;74.45;99432.25;5018314;28;20226;-75
2021/03/02 05:25:12;;;;;;;39.03;19.48;;;;;;;3.16;74.25;99434.84;5014422;28;20218;-75
2021/03/02 05:27:38;;;;;;;43.13;20.52;;;;;;;3.16;74.33;99429.69;5014459;28;20215;-74
2021/03/02 05:30:05;;;;;;;39.78;19.38;;;;;;;3.16;74.06;99423.63;5014290;28;20242;-75
2021/03/02 05:32:31;;;;;;;38.92;18.88;;;;;;;3.14;73.96;99430.50;5019705;28;20295;-76
2021/03/02 05:34:58;;;;;;;39.00;19.85;;;;;;;3.10;74.25;99434.75;5016896;28;20214;-76
2021/03/02 05:37:25;;;;;;;41.40;20.40;;;;;;;3.11;73.86;99430.44;5016422;28;20239;-75
2021/03/02 05:39:51;;;;;;;37.97;19.48;;;;;;;3.09;73.69;99423.56;5015416;28;20226;-75
2021/03/02 05:42:17;;;;;;;39.75;19.35;;;;;;;3.08;74.08;99434.72;5015082;28;20239;-75
2021/03/02 05:44:46;;;;;;;38.57;20.20;;;;;;;3.06;73.93;99433.84;5016538;28;20219;-73
2021/03/02 05:47:12;;;;;;;40.47;19.70;;;;;;;3.06;73.83;99439.00;5017363;28;20253;-74
2021/03/02 05:49:40;;;;;;;38.70;19.70;;;;;;;3.03;74.04;99432.94;5013636;28;20207;-75
2021/03/02 05:52:06;;;;;;;46.95;20.98;;;;;;;3.06;73.96;99438.13;5016494;28;20709;-76
2021/03/02 05:54:34;;;;;;;40.73;20.20;;;;;;;3.05;74.16;99442.44;5020354;28;20729;-75
2021/03/02 05:57:01;;;;;;;41.90;20.20;;;;;;;3.05;73.95;99441.56;5021752;28;20750;-75
2021/03/02 05:59:28;;;;;;;42.45;20.38;;;;;;;3.06;74.03;99443.28;5019136;28;20218;-74
2021/03/02 06:01:54;;;;;;;43.57;20.43;;;;;;;3.03;74.04;99438.97;5007770;28;20713;-74
2021/03/02 06:04:21;;;;;;;41.33;19.83;;;;;;;3.03;73.93;99443.25;5017168;28;20981;-74
2021/03/02 06:06:47;;;;;;;39.57;20.23;;;;;;;3.02;73.93;99447.56;5030673;28;20292;-74
2021/03/02 06:09:13;;;;;;;37.05;19.50;;;;;;;3.01;74.22;99445.81;5018713;28;20214;-74
2021/03/02 06:11:41;;;;;;;42.83;20.57;;;;;;;3.03;73.82;99445.81;5013880;28;20235;-73
2021/03/02 06:14:20;;;;;;;35.63;18.00;;;;;;;2.99;74.05;99451.81;5020661;28;20222;-74
2021/03/02 06:16:47;;;;;;;38.10;18.53;;;;;;;2.98;74.08;99455.22;5017166;28;20810;-73
2021/03/02 06:19:14;;;;;;;36.77;19.50;;;;;;;3.00;73.95;99453.53;5014622;28;20220;-74
2021/03/02 06:21:40;;;;;;;37.60;18.60;;;;;;;2.99;73.42;99449.22;5012820;28;20251;-75
2021/03/02 06:24:07;;;;;;;37.15;18.60;;;;;;;3.02;73.64;99459.59;5015678;28;20214;-74
2021/03/02 06:26:35;;;;;;;41.67;19.50;;;;;;;3.04;73.63;99455.31;5015564;28;20250;-74
2021/03/02 06:29:12;;;;;;;37.57;19.43;;;;;;;3.17;73.27;99457.19;5017783;28;20314;-75
2021/03/02 06:31:40;;;;;;;39.63;19.83;;;;;;;3.22;73.06;99465.84;5014563;28;20261;-74
2021/03/02 06:34:14;;;;;;;39.65;19.05;;;;;;;3.28;73.01;99460.75;5018114;28;20237;-75
2021/03/02 06:36:41;;;;;;;38.23;18.93;;;;;;;3.33;73.25;99468.56;5016781;28;21067;-74
2021/03/02 06:39:28;;;;;;;39.15;18.90;;;;;;;3.38;73.27;99466.00;5018033;28;20224;-74
2021/03/02 06:42:09;;;;;;;36.10;17.23;;;;;;;3.34;73.67;99464.25;5017858;28;20760;-74
2021/03/02 06:44:37;;;;;;;39.58;19.20;;;;;;;3.26;73.46;99467.59;5016775;28;20264;-75
2021/03/02 06:47:03;;;;;;;40.10;19.10;;;;;;;3.24;73.56;99458.13;5018076;28;20231;-75
2021/03/02 06:49:44;;;;;;;42.10;19.15;;;;;;;3.23;73.98;99470.13;5022885;28;20224;-74
2021/03/02 06:52:18;;;;;;;38.65;18.77;;;;;;;3.22;73.84;99481.31;5017116;28;20772;-75
2021/03/02 06:54:45;;;;;;;40.92;19.75;;;;;;;3.20;74.33;99477.84;5017385;28;20301;-74
2021/03/02 06:57:11;;;;;;;36.90;18.73;;;;;;;3.19;74.15;99475.25;5017700;28;20730;-75
2021/03/02 06:59:39;;;;;;;38.05;18.70;;;;;;;3.18;74.44;99478.66;5015034;28;20223;-75
2021/03/02 07:02:05;;;;;;;41.27;19.80;;;;;;;3.22;73.94;99473.59;5014364;28;20239;-74
2021/03/02 07:04:31;;;;;;;42.75;20.83;;;;;;;3.27;74.06;99478.78;5021152;28;20718;-74
2021/03/02 07:07:00;;;;;;;40.13;19.00;;;;;;;3.34;73.83;99479.72;5014234;28;20749;-73
2021/03/02 07:09:27;;;;;;;42.60;19.20;;;;;;;3.34;74.09;99479.72;5018257;28;20255;-75
2021/03/02 07:11:56;;;;;;;36.03;17.65;;;;;;;3.37;74.25;99479.78;5015323;28;20271;-74
2021/03/02 07:14:24;;;;;;;38.50;18.80;;;;;;;3.36;74.58;99485.78;5017440;28;20225;-74
2021/03/02 07:16:52;;;;;;;38.97;19.92;;;;;;;3.47;73.87;99479.91;5015469;28;20728;-73
2021/03/02 07:19:19;;;;;;;37.15;17.00;;;;;;;3.48;74.23;99485.91;5016109;28;20305;-74
2021/03/02 07:21:49;;;;;;;40.58;19.17;;;;;;;3.51;74.38;99483.38;5016299;28;20758;-74
2021/03/02 07:24:18;;;;;;;41.17;18.90;;;;;;;3.52;74.36;99482.53;5018664;28;20230;-74
2021/03/02 07:26:46;;;;;;;40.63;18.80;;;;;;;3.60;74.25;99495.50;5015351;28;21191;-75
2021/03/02 07:29:12;;;;;;;37.85;19.23;;;;;;;3.63;74.02;99487.81;5017572;28;20222;-74
2021/03/02 07:31:39;;;;;;;39.15;19.05;;;;;;;3.75;74.19;99498.25;5012486;28;20250;-75
2021/03/02 07:34:07;;;;;;;37.13;18.20;;;;;;;3.73;74.32;99501.66;5021315;28;20613;-76
2021/03/02 07:36:36;;;;;;;39.58;18.83;;;;;;;3.83;74.31;99506.09;5014749;28;20234;-74
2021/03/02 07:39:18;;;;;;;38.43;19.07;;;;;;;3.98;73.63;99505.38;5017630;28;20314;-74
2021/03/02 07:41:45;;;;;;;35.65;18.83;;;;;;;4.02;73.80;99492.47;5013627;28;20338;-74
2021/03/02 07:44:12;;;;;;;38.17;19.15;;;;;;;4.10;73.87;99497.75;5018387;28;20228;-74
2021/03/02 07:46:46;;;;;;;42.13;19.92;;;;;;;4.22;74.03;99502.13;5014546;28;20243;-75
2021/03/02 07:49:36;;;;;;;37.05;19.40;;;;;;;4.32;73.60;99511.72;5018618;28;20221;-74
2021/03/02 07:52:24;;;;;;;38.67;19.65;;;;;;;4.42;73.67;99516.09;5017083;28;20239;-74
2021/03/02 07:55:22;;;;;;;40.53;19.23;;;;;;;4.49;74.07;99522.19;5010822;28;20242;-74
2021/03/02 07:57:52;;;;;;;40.30;19.05;;;;;;;4.57;73.56;99514.47;5014302;28;20244;-74
2021/03/02 08:00:26;;;;;;;38.00;19.75;;;;;;;4.72;73.02;99513.72;5014903;28;20618;-75
2021/03/02 08:03:20;;;;;;;41.97;19.63;;;;;;;4.83;73.07;99515.53;5015524;28;20218;-74
2021/03/02 08:05:48;;;;;;;37.10;18.77;;;;;;;4.89;72.99;99513.81;5012428;28;20235;-76
2021/03/02 08:08:33;;;;;;;38.38;20.17;;;;;;;5.04;72.79;99519.09;5015325;28;20276;-75
2021/03/02 08:11:01;;;;;;;38.00;20.52;;;;;;;5.15;71.75;99522.63;5015103;28;20563;-75
2021/03/02 08:13:35;;;;;;;37.00;18.92;;;;;;;5.27;71.99;99526.13;5020160;28;20887;-74
2021/03/02 08:16:02;;;;;;;38.08;19.48;;;;;;;5.35;71.54;99524.44;5016750;28;20230;-74
2021/03/02 08:18:30;;;;;;;35.72;18.35;;;;;;;5.49;71.26;99524.47;5017164;28;20561;-75
2021/03/02 08:21:12;;;;;;;38.35;18.67;;;;;;;5.61;70.80;99537.47;5014533;28;20265;-74
2021/03/02 08:23:55;;;;;;;39.13;18.63;;;;;;;5.72;70.71;99524.56;5012091;28;20227;-75
2021/03/02 08:26:32;;;;;;;37.55;19.13;;;;;;;5.82;70.62;99526.31;5014032;28;20253;-75
2021/03/02 08:29:13;;;;;;;34.78;18.45;;;;;;;5.94;69.93;99531.53;5016356;28;20281;-75
2021/03/02 08:31:41;;;;;;;34.10;16.50;;;;;;;5.94;70.09;99534.13;5012855;28;20325;-75
2021/03/02 08:34:09;;;;;;;36.13;17.98;;;;;;;6.08;69.77;99530.72;5023365;28;20218;-76
2021/03/02 08:36:37;;;;;;;36.45;19.02;;;;;;;6.20;69.51;99538.53;5018602;28;20325;-74
2021/03/02 08:39:15;;;;;;;33.13;18.45;;;;;;;6.31;69.08;99530.75;5019418;28;20207;-75
2021/03/02 08:41:42;;;;;;;35.88;19.27;;;;;;;6.35;68.85;99533.34;5018172;28;20247;-74
2021/03/02 08:44:17;;;;;;;36.80;18.83;;;;;;;6.47;68.95;99531.63;5020451;28;20222;-74
2021/03/02 08:46:43;;;;;;;33.65;18.80;;;;;;;6.51;68.72;99528.19;5015997;28;20245;-76
2021/03/02 08:49:10;;;;;;;33.70;17.45;;;;;;;6.56;68.56;99526.44;5034592;28;20218;-74
2021/03/02 08:51:38;;;;;;;32.20;17.08;;;;;;;6.78;68.23;99531.59;5017316;28;20242;-74
2021/03/02 08:54:06;;;;;;;32.00;17.98;;;;;;;6.84;67.69;99526.44;5019467;28;20722;-75
2021/03/02 08:56:32;;;;;;;33.45;17.85;;;;;;;6.91;67.26;99528.13;5019723;28;20234;-75
2021/03/02 08:59:05;;;;;;;30.52;17.25;;;;;;;7.01;67.34;99516.88;5018248;28;20242;-76
2021/03/02 09:01:33;;;;;;;31.23;18.02;;;;;;;7.11;66.83;99528.97;5018679;28;20399;-75
2021/03/02 09:04:11;;;;;;;32.33;18.63;;;;;;;7.22;66.27;99522.88;5019777;28;20224;-76
2021/03/02 09:06:39;;;;;;;34.60;17.55;;;;;;;7.29;66.43;99527.16;5017784;28;20273;-75
2021/03/02 09:09:07;;;;;;;30.67;16.70;;;;;;;7.38;65.65;99529.72;5016875;28;20245;-74
2021/03/02 09:11:35;;;;;;;28.30;14.63;;;;;;;7.51;65.94;99526.22;5019449;28;20246;-74
2021/03/02 09:14:03;;;;;;;27.38;15.65;;;;;;;7.65;64.88;99517.53;5018953;28;20228;-74
2021/03/02 09:16:43;;;;;;;30.42;16.75;;;;;;;7.73;65.22;99531.31;5017801;28;20234;-76
2021/03/02 09:19:12;;;;;;;28.88;17.13;;;;;;;7.89;64.30;99534.72;5019965;28;20275;-75
2021/03/02 09:21:41;;;;;;;31.95;17.42;;;;;;;8.01;64.08;99531.16;5018545;28;20309;-76
2021/03/02 09:24:08;;;;;;;25.83;15.85;;;;;;;8.14;63.80;99532.81;5016754;28;20226;-74
2021/03/02 09:26:35;;;;;;;28.33;16.05;;;;;;;8.24;63.18;99525.81;5015586;28;20300;-75
2021/03/02 09:29:03;;;;;;;29.38;16.83;;;;;;;8.30;63.23;99524.03;5018962;28;20216;-75
2021/03/02 09:31:30;;;;;;;28.15;16.05;;;;;;;8.48;62.43;99522.22;5020377;28;20808;-75
2021/03/02 09:33:56;;;;;;;29.23;15.63;;;;;;;8.62;62.64;99520.34;5017905;28;20277;-75
2021/03/02 09:36:25;;;;;;;29.77;16.55;;;;;;;8.82;61.93;99527.97;5017369;28;20238;-74
2021/03/02 09:38:54;;;;;;;27.30;15.93;;;;;;;8.98;61.57;99527.81;5017337;28;20281;-75
2021/03/02 09:41:30;;;;;;;26.00;15.57;;;;;;;9.13;60.51;99532.00;5015410;28;20811;-74
2021/03/02 09:43:57;;;;;;;26.35;15.88;;;;;;;9.29;60.61;99520.53;5016534;28;20223;-76
2021/03/02 09:46:38;;;;;;;28.08;15.77;;;;;;;9.50;58.79;99516.81;5018130;28;20758;-74
2021/03/02 09:49:04;;;;;;;25.25;14.80;;;;;;;9.75;59.70;99516.50;5020596;28;20229;-75
2021/03/02 09:51:32;;;;;;;27.73;15.68;;;;;;;9.95;59.10;99514.50;5032535;28;20722;-75
2021/03/02 09:54:15;;;;;;;26.23;15.73;;;;;;;10.24;57.99;99510.59;5017774;28;20231;-76
2021/03/02 09:56:46;;;;;;;27.13;15.93;;;;;;;10.51;57.51;99516.28;5016577;28;20247;-75
2021/03/02 09:59:20;;;;;;;28.13;16.13;;;;;;;10.97;57.08;99511.13;5022387;28;20379;-76
2021/03/02 10:01:47;;;;;;;26.95;16.25;;;;;;;11.44;55.94;99512.84;5014166;28;20246;-75
2021/03/02 10:04:15;;;;;;;27.02;15.85;;;;;;;11.94;54.64;99513.53;5019439;28;20345;-75
2021/03/02 10:06:41;;;;;;;24.85;15.65;;;;;;;12.53;53.15;99506.06;5014126;28;20278;-74
2021/03/02 10:09:20;;;;;;;24.25;14.55;;;;;;;13.36;50.23;99502.16;5017762;28;20254;-74
2021/03/02 10:11:46;;;;;;;25.60;15.73;;;;;;;14.25;49.36;99500.31;5013740;28;20242;-76
2021/03/02 10:14:12;;;;;;;25.15;14.98;;;;;;;15.47;47.00;99496.16;5018043;28;20222;-75
2021/03/02 10:16:41;;;;;;;24.38;14.23;;;;;;;16.68;44.81;99495.78;5015880;28;20265;-75
2021/03/02 10:19:16;;;;;;;23.63;15.50;;;;;;;18.06;42.20;99480.00;5018233;28;20264;-74
2021/03/02 10:21:45;;;;;;;25.05;15.43;;;;;;;19.41;39.67;99482.91;5016239;28;20274;-75
2021/03/02 10:24:16;;;;;;;23.13;15.52;;;;;;;20.68;36.32;99479.38;5017360;28;20218;-76
2021/03/02 10:26:44;;;;;;;21.13;14.98;;;;;;;21.84;35.16;99478.47;5013127;28;20243;-76
2021/03/02 10:29:11;;;;;;;23.65;15.73;;;;;;;23.28;33.51;99475.97;5018480;28;20691;-75
2021/03/02 10:31:37;;;;;;;21.80;15.15;;;;;;;24.22;31.77;99470.13;5012572;28;20243;-76
2021/03/02 10:34:05;;;;;;;20.35;14.68;;;;;;;24.78;30.57;99466.81;5016782;28;20207;-75
2021/03/02 10:36:33;;;;;;;19.13;14.82;;;;;;;25.55;30.30;99478.72;5016884;28;20230;-76
2021/03/02 10:39:00;;;;;;;17.50;14.60;;;;;;;25.41;29.27;99471.78;5017974;28;20667;-75
2021/03/02 10:41:28;;;;;;;19.08;14.73;;;;;;;27.02;27.69;99468.38;5013835;28;20255;-76
2021/03/02 10:43:56;;;;;;;18.42;13.45;;;;;;;28.22;26.19;99473.88;5017538;28;20219;-77
2021/03/02 10:46:24;;;;;;;17.40;13.80;;;;;;;29.66;25.06;99464.00;5015590;28;20247;-78
2021/03/02 10:48:50;;;;;;;18.10;14.50;;;;;;;30.34;23.74;99455.53;5015208;28;20251;-77
2021/03/02 10:51:17;;;;;;;17.90;14.07;;;;;;;31.19;23.23;99463.09;5013103;28;20246;-78
2021/03/02 10:53:44;;;;;;;15.45;13.52;;;;;;;32.11;21.98;99457.06;5014307;28;20305;-75
2021/03/02 10:56:10;;;;;;;16.30;13.00;;;;;;;32.99;20.94;99457.25;5015238;28;20276;-75
2021/03/02 10:58:36;;;;;;;16.90;14.63;;;;;;;33.79;20.10;99458.19;5014626;28;20687;-73
2021/03/02 11:01:04;;;;;;;15.38;13.57;;;;;;;34.26;19.32;99459.09;5015841;28;20247;-73
2021/03/02 11:03:30;;;;;;;14.27;12.77;;;;;;;34.84;19.02;99445.94;5018446;28;20224;-73
2021/03/02 11:05:57;;;;;;;14.57;13.02;;;;;;;34.62;18.57;99447.66;5015308;28;20282;-73
2021/03/02 11:08:23;;;;;;;14.35;12.85;;;;;;;35.19;17.95;99444.41;5015168;28;20218;-74
2021/03/02 11:10:50;;;;;;;14.85;13.38;;;;;;;34.84;17.95;99443.25;5011461;28;20354;-75
2021/03/02 11:13:17;;;;;;;14.40;12.75;;;;;;;35.55;17.58;99442.78;5017569;28;20553;-76
2021/03/02 11:15:43;;;;;;;14.32;12.93;;;;;;;35.50;17.32;99438.78;5012477;28;20247;-75
2021/03/02 11:18:11;;;;;;;14.25;12.85;;;;;;;36.05;16.93;99436.50;5029638;28;20278;-74
2021/03/02 11:20:38;;;;;;;13.77;12.38;;;;;;;35.87;16.77;99426.06;5012890;28;20242;-74
2021/03/02 11:23:04;;;;;;;14.25;12.52;;;;;;;36.23;16.34;99414.38;5020115;28;20610;-74
2021/03/02 11:25:32;;;;;;;13.77;11.48;;;;;;;36.18;16.27;99410.53;5015822;28;20233;-75
2021/03/02 11:27:58;;;;;;;13.70;12.30;;;;;;;36.06;16.52;99410.19;5015238;28;20247;-73
2021/03/02 11:30:25;;;;;;;14.32;12.48;;;;;;;35.87;16.13;99404.34;5013014;28;20243;-74